Kezdőlap
METAR-TAF:

METAR-TAF

Repülőterek :

Kerrville Municipal Airport (Louis Schreiner Field)

Kerrville, Texas, Amerikai Egyesült Államok

földrajzi szélesség: 29-58N, földrajzi hosszúság: 099-05W, magasság: 493 m

Jelenlegi meteorológiai megfigyelések

A jelentés 44 perccel ezelõtt készült, 05:15 UTC
Szélcsend
Hőmérséklet 26°C
Páratartalom 74%
Légköri nyomás 1016 hPa
Látótávolság: 16.1 km
Szórványos felhőzet 3400 lábon

METAR: KERV 240515Z AUTO 00000KT 10SM SCT034 26/21 A3001 RMK AO2 T02600206

Idő: 00:59 (05:59 UTC)


TAF: hiányzik

Meteorológiai megfigyelések és előrejelzések több, mint 4000 repülőtéren (METAR és TAF jelentéseket).

A térképen piros és sárga pontok jelzik az elérhető meteorológiai állomásokat.

Mozgassa az egeret a pont fölött, hogy megjelenjen az állomás neve.

Azután kattintson az időjárási megfigyelések és előrejelzések megtekintéséhez.

A térkép megváltoztatása: kattintson a fekete keresztel jelölt zöld gombra ráközelítéshez, a vonallal jelölt zöld gombra távolításhoz, vagy a zöld nyilakra a szomszédos térképek eléréséhez.


METAR-TAF: